Time;durP1;ratioP1;P1;durP2;ratioP2;P2;SDS_P1;SDS_P2;PMS_P1;PMS_P2;Temp;Humidity;BMP_temperature;BMP_pressure;BME280_temperature;BME280_humidity;BME280_pressure;Samples;Min_cycle;Max_cycle;Signal;HPM_P1;HPM_P2
2022/08/20 00:00:00;;;;;;;8.05;7.10;;;;;;;22.34;66.92;100945.66;4931009;28;122039;-79
2022/08/20 00:02:38;;;;;;;10.77;8.30;;;;;;;22.41;67.16;100935.16;4924410;28;124036;-79
2022/08/20 00:05:04;;;;;;;16.25;13.07;;;;;;;22.45;66.42;100927.97;4924756;28;122240;-79
2022/08/20 00:07:30;;;;;;;8.60;7.30;;;;;;;22.52;66.63;100915.47;4926037;28;122229;-80
2022/08/20 00:09:55;;;;;;;7.17;6.40;;;;;;;22.55;65.70;100908.81;4922030;28;123346;-79
2022/08/20 00:12:21;;;;;;;8.40;6.50;;;;;;;22.59;66.33;100917.66;4925268;28;122243;-79
2022/08/20 00:14:47;;;;;;;8.90;6.13;;;;;;;22.59;66.61;100907.22;4927995;28;122053;-79
2022/08/20 00:17:12;;;;;;;9.50;7.83;;;;;;;22.64;65.16;100916.81;4893238;28;122627;-79
2022/08/20 00:19:38;;;;;;;9.93;7.82;;;;;;;22.55;66.04;100894.84;4907633;28;122677;-79
2022/08/20 00:22:04;;;;;;;12.40;8.75;;;;;;;22.70;65.89;100909.09;4904549;28;122278;-79
2022/08/20 00:24:30;;;;;;;12.77;9.40;;;;;;;22.72;65.16;100911.38;4924504;28;121748;-79
2022/08/20 00:26:55;;;;;;;13.13;10.13;;;;;;;22.75;66.25;100913.13;4916158;28;122320;-79
2022/08/20 00:29:21;;;;;;;13.30;9.50;;;;;;;22.78;66.42;100912.06;4908707;22;123929;-82
2022/08/20 00:31:46;;;;;;;16.27;11.63;;;;;;;22.74;66.67;100906.78;4923717;28;123419;-81
2022/08/20 00:34:13;;;;;;;19.93;15.00;;;;;;;22.76;66.50;100911.81;4908988;28;124843;-82
2022/08/20 00:36:38;;;;;;;18.05;14.00;;;;;;;22.74;66.41;100917.94;4899503;28;125677;-82
2022/08/20 00:39:04;;;;;;;18.47;13.60;;;;;;;22.72;66.54;100914.94;4900330;28;121922;-81
2022/08/20 00:41:30;;;;;;;21.50;15.93;;;;;;;22.78;66.82;100921.19;4901845;28;124568;-82
2022/08/20 00:44:17;;;;;;;27.20;19.57;;;;;;;22.76;66.47;100923.00;4905912;28;122308;-81
2022/08/20 00:46:45;;;;;;;25.27;17.98;;;;;;;22.75;66.96;100921.50;4911796;28;123468;-81
2022/08/20 00:49:21;;;;;;;24.00;17.45;;;;;;;22.66;66.70;100914.22;4900092;28;127006;-82
2022/08/20 00:52:10;;;;;;;21.47;16.80;;;;;;;22.71;67.01;100918.22;4886533;28;122069;-82
2022/08/20 00:54:40;;;;;;;20.17;16.25;;;;;;;22.72;66.69;100917.72;4915051;28;122579;-82
2022/08/20 00:57:11;;;;;;;22.80;17.55;;;;;;;22.73;67.15;100912.88;4916029;28;125456;-81
2022/08/20 00:59:38;;;;;;;21.23;15.63;;;;;;;22.77;67.47;100910.53;4911143;28;122566;-82
2022/08/20 01:02:08;;;;;;;23.48;16.60;;;;;;;22.72;67.04;100906.53;4902480;28;123072;-82
2022/08/20 01:04:35;;;;;;;23.10;16.83;;;;;;;22.78;67.10;100909.25;4922862;28;123832;-82
2022/08/20 01:07:04;;;;;;;27.30;19.15;;;;;;;22.75;67.03;100905.47;4901038;28;124375;-82
2022/08/20 01:09:30;;;;;;;29.63;20.17;;;;;;;22.74;67.22;100911.59;4902639;28;123719;-82
2022/08/20 01:11:56;;;;;;;28.40;19.47;;;;;;;22.66;67.55;100898.22;4902447;28;123885;-81
2022/08/20 01:14:42;;;;;;;34.90;23.63;;;;;;;22.67;67.61;100896.94;4899837;28;124766;-82
2022/08/20 01:17:09;;;;;;;36.77;23.73;;;;;;;22.70;67.83;100903.50;4925015;28;123314;-81
2022/08/20 01:19:39;;;;;;;45.33;29.13;;;;;;;22.74;67.74;100912.34;4904301;28;123104;-82
2022/08/20 01:23:25;;;;;;;46.03;29.92;;;;;;;22.79;68.51;100910.75;4919734;28;122993;-81
2022/08/20 01:25:01;;;;;;;52.17;32.50;;;;;;;22.76;68.56;100912.59;4916165;28;124212;-82
2022/08/20 01:27:27;;;;;;;32.45;21.15;;;;;;;22.77;67.30;100902.91;4909820;28;122460;-81
2022/08/20 01:29:53;;;;;;;18.80;14.77;;;;;;;22.71;66.61;100901.44;4913523;28;123274;-82
2022/08/20 01:32:18;;;;;;;28.67;19.35;;;;;;;22.75;67.06;100910.31;4912838;28;122518;-82
2022/08/20 01:34:44;;;;;;;35.13;22.63;;;;;;;22.71;66.81;100912.63;4921106;28;124490;-82
2022/08/20 01:37:10;;;;;;;43.03;28.30;;;;;;;22.68;67.49;100906.06;4908503;28;125288;-82
2022/08/20 01:39:36;;;;;;;52.50;32.60;;;;;;;22.62;67.87;100903.34;4923744;28;122337;-82
2022/08/20 01:42:06;;;;;;;50.47;32.97;;;;;;;22.66;67.71;100911.44;4914200;28;124255;-82
2022/08/20 01:44:36;;;;;;;54.50;34.25;;;;;;;22.62;68.68;100903.34;4925338;28;123332;-82
2022/08/20 01:47:18;;;;;;;56.10;34.38;;;;;;;22.65;68.79;100907.88;4891804;28;123035;-82
2022/08/20 01:49:51;;;;;;;54.63;34.70;;;;;;;22.63;69.38;100904.88;4910123;28;123620;-81
2022/08/20 01:52:35;;;;;;;57.05;34.92;;;;;;;22.71;70.31;100909.84;4906052;28;122208;-82
2022/08/20 01:55:02;;;;;;;55.85;34.25;;;;;;;22.74;69.87;100920.00;4912242;28;122849;-82
2022/08/20 01:57:28;;;;;;;52.23;34.03;;;;;;;22.67;69.97;100901.75;4883302;28;125667;-82
2022/08/20 01:59:54;;;;;;;54.00;34.60;;;;;;;22.79;70.21;100921.94;4908288;28;122307;-82
2022/08/20 02:02:20;;;;;;;51.83;33.08;;;;;;;22.80;69.67;100912.28;4916917;28;125210;-82
2022/08/20 02:04:46;;;;;;;54.22;33.78;;;;;;;22.79;69.61;100911.50;4917160;28;124177;-82
2022/08/20 02:07:16;;;;;;;51.92;32.75;;;;;;;22.78;70.13;100907.22;4922712;28;122293;-82
2022/08/20 02:09:43;;;;;;;57.42;33.20;;;;;;;22.82;69.92;100916.06;4905234;28;124820;-82
2022/08/20 02:12:10;;;;;;;51.28;32.58;;;;;;;22.88;69.30;100919.53;4919971;28;122796;-82
2022/08/20 02:14:47;;;;;;;52.55;33.35;;;;;;;22.87;69.53;100917.28;4910914;28;122124;-82
2022/08/20 02:17:14;;;;;;;53.85;32.40;;;;;;;22.88;69.69;100908.34;4901369;28;124065;-83
2022/08/20 02:19:47;;;;;;;49.97;32.70;;;;;;;22.89;69.91;100909.84;4920029;28;122480;-82
2022/08/20 02:22:25;;;;;;;50.03;30.80;;;;;;;22.94;70.09;100911.81;4925454;28;124245;-82
2022/08/20 02:24:51;;;;;;;50.85;30.77;;;;;;;22.97;69.61;100910.03;4917909;28;123798;-82
2022/08/20 02:27:17;;;;;;;46.00;29.83;;;;;;;22.92;69.21;100900.41;4899803;28;122236;-82
2022/08/20 02:29:43;;;;;;;47.55;30.15;;;;;;;22.97;68.86;100912.81;4922629;28;122704;-81
2022/08/20 02:32:10;;;;;;;46.25;30.20;;;;;;;22.88;68.74;100911.16;4917959;28;122236;-81
2022/08/20 02:34:36;;;;;;;48.10;30.63;;;;;;;22.92;69.14;100924.81;4903242;28;122833;-82
2022/08/20 02:37:03;;;;;;;49.25;31.10;;;;;;;22.89;69.14;100920.28;4922956;28;126232;-82
2022/08/20 02:39:29;;;;;;;49.20;30.40;;;;;;;22.83;69.61;100923.19;4914729;28;122477;-81
2022/08/20 02:41:55;;;;;;;50.87;30.07;;;;;;;22.85;69.67;100929.00;4914238;28;123051;-82
2022/08/20 02:44:20;;;;;;;46.17;29.10;;;;;;;22.83;69.39;100928.03;4923478;28;123195;-82
2022/08/20 02:46:51;;;;;;;47.83;29.25;;;;;;;22.88;69.60;100938.38;4925925;28;121860;-80
2022/08/20 02:49:18;;;;;;;50.17;30.73;;;;;;;22.86;70.32;100943.75;4906043;28;124221;-81
2022/08/20 02:51:44;;;;;;;50.15;30.85;;;;;;;22.85;70.35;100936.63;4915916;28;123572;-81
2022/08/20 02:54:11;;;;;;;50.27;31.53;;;;;;;22.94;70.72;100947.44;4916725;28;122278;-82
2022/08/20 02:56:37;;;;;;;59.33;36.50;;;;;;;22.96;70.52;100953.28;4903420;28;122669;-82
2022/08/20 02:59:03;;;;;;;67.32;38.20;;;;;;;22.92;70.45;100947.97;4914671;28;122102;-82
2022/08/20 03:01:30;;;;;;;70.38;41.20;;;;;;;22.92;70.28;100945.16;4924137;28;122209;-82
2022/08/20 03:03:57;;;;;;;70.45;40.88;;;;;;;22.89;70.62;100945.47;4895749;28;122513;-82
2022/08/20 03:06:24;;;;;;;72.85;41.20;;;;;;;22.93;70.39;100948.72;4916522;28;122533;-81
2022/08/20 03:08:50;;;;;;;72.30;40.25;;;;;;;22.99;70.11;100957.78;4898050;28;124338;-81
2022/08/20 03:11:17;;;;;;;70.85;40.40;;;;;;;22.99;70.78;100957.78;4913400;28;122789;-81
2022/08/20 03:13:43;;;;;;;72.57;39.90;;;;;;;22.98;70.47;100950.69;4903756;28;122158;-81
2022/08/20 03:16:09;;;;;;;68.00;39.37;;;;;;;23.00;70.74;100959.31;4916213;28;122849;-81
2022/08/20 03:18:39;;;;;;;71.85;41.17;;;;;;;22.93;70.19;100948.72;4910862;28;122341;-81
2022/08/20 03:21:06;;;;;;;68.00;38.80;;;;;;;22.95;70.41;100946.16;4897261;28;123130;-81
2022/08/20 03:23:41;;;;;;;69.00;39.10;;;;;;;22.96;70.21;100956.81;4923826;28;124152;-81
2022/08/20 03:26:10;;;;;;;66.50;38.55;;;;;;;22.95;70.17;100957.34;4918120;28;122371;-82
2022/08/20 03:28:36;;;;;;;67.95;39.42;;;;;;;22.85;70.10;100942.22;4913775;28;123156;-81
2022/08/20 03:31:04;;;;;;;67.27;39.23;;;;;;;22.87;70.23;100950.84;4899779;28;125754;-81
2022/08/20 03:33:30;;;;;;;66.37;38.40;;;;;;;22.90;70.29;100963.75;4919272;28;124563;-82
2022/08/20 03:35:57;;;;;;;65.55;38.30;;;;;;;22.89;70.42;100965.03;4919210;28;123131;-81
2022/08/20 03:38:23;;;;;;;65.07;38.00;;;;;;;22.89;70.32;100960.22;4901729;28;125688;-81
2022/08/20 03:40:49;;;;;;;70.03;39.57;;;;;;;22.87;70.82;100959.22;4912325;28;122307;-82
2022/08/20 03:43:15;;;;;;;64.27;37.50;;;;;;;22.84;70.66;100957.50;4894779;28;125350;-81
2022/08/20 03:45:43;;;;;;;66.18;37.58;;;;;;;22.91;69.71;100968.81;4910129;28;122189;-81
2022/08/20 03:48:13;;;;;;;69.10;39.10;;;;;;;22.87;70.87;100968.38;4918970;28;124631;-82
2022/08/20 03:50:40;;;;;;;64.32;38.50;;;;;;;22.87;70.39;100965.56;4911281;28;123818;-82
2022/08/20 03:53:07;;;;;;;64.82;38.58;;;;;;;22.94;70.66;100970.56;4908502;28;122711;-82
2022/08/20 03:55:33;;;;;;;62.03;37.30;;;;;;;22.87;70.26;100962.03;4906668;28;124865;-83
2022/08/20 03:58:02;;;;;;;66.15;38.92;;;;;;;22.91;70.06;100968.06;4876763;28;127049;-81
2022/08/20 04:00:41;;;;;;;67.03;38.92;;;;;;;22.90;70.22;100967.31;4923608;28;122551;-81
2022/08/20 04:03:08;;;;;;;65.13;37.90;;;;;;;22.91;70.49;100963.22;4904670;28;125095;-81
2022/08/20 04:05:39;;;;;;;60.70;37.38;;;;;;;22.88;69.84;100963.53;4920491;28;122534;-81
2022/08/20 04:08:14;;;;;;;62.55;37.80;;;;;;;22.89;70.16;100965.03;4902339;28;122998;-82
2022/08/20 04:10:41;;;;;;;63.30;37.57;;;;;;;22.89;69.80;100965.03;4916456;28;122246;-81
2022/08/20 04:13:07;;;;;;;63.67;37.65;;;;;;;22.85;69.56;100964.59;4938561;28;122467;-81
2022/08/20 04:15:35;;;;;;;63.28;37.35;;;;;;;22.86;70.04;100968.91;4920510;28;122225;-81
2022/08/20 04:18:06;;;;;;;58.08;35.85;;;;;;;22.81;69.63;100962.09;4921786;28;125398;-82
2022/08/20 04:20:33;;;;;;;60.85;35.60;;;;;;;22.80;69.92;100954.22;4923835;28;122256;-81
2022/08/20 04:22:59;;;;;;;59.37;35.87;;;;;;;22.80;69.59;100957.03;4922840;28;122718;-81
2022/08/20 04:25:30;;;;;;;54.80;34.47;;;;;;;22.77;69.69;100955.28;4892496;28;122538;-81
2022/08/20 04:28:01;;;;;;;54.73;34.00;;;;;;;22.80;69.89;100966.16;4924414;28;123265;-82
2022/08/20 04:30:28;;;;;;;51.90;32.95;;;;;;;22.79;70.00;100963.91;4923726;28;124126;-82
2022/08/20 04:32:54;;;;;;;52.13;32.88;;;;;;;22.74;70.01;100954.31;4937096;28;122007;-81
2022/08/20 04:35:23;;;;;;;52.45;32.33;;;;;;;22.80;69.97;100962.63;4934424;28;123020;-82
2022/08/20 04:37:49;;;;;;;50.92;32.83;;;;;;;22.72;69.72;100958.91;4937885;28;122234;-82
2022/08/20 04:43:04;;;;;;;47.75;31.13;;;;;;;22.75;70.09;100971.84;4923770;28;123749;-81
2022/08/20 04:45:31;;;;;;;46.55;30.45;;;;;;;22.73;69.74;100985.59;4904598;28;122622;-82
2022/08/20 04:47:56;;;;;;;45.75;31.27;;;;;;;22.66;69.32;100978.53;4908134;28;122337;-81
2022/08/20 04:50:22;;;;;;;44.65;29.95;;;;;;;22.57;69.29;100979.69;4910752;28;122484;-82
2022/08/20 04:52:51;;;;;;;46.78;30.00;;;;;;;22.52;70.20;100982.53;4922514;28;122160;-82
2022/08/20 04:55:18;;;;;;;47.97;30.20;;;;;;;22.54;69.93;100988.38;4899800;28;124673;-82
2022/08/20 04:57:43;;;;;;;41.53;27.03;;;;;;;22.47;70.34;100984.09;4936269;28;122747;-82
2022/08/20 05:00:14;;;;;;;40.80;25.97;;;;;;;22.42;69.92;100990.53;4915199;28;122534;-82
2022/08/20 05:02:40;;;;;;;40.15;26.13;;;;;;;22.47;69.65;101000.88;4903957;28;125154;-81
2022/08/20 05:05:07;;;;;;;37.83;25.65;;;;;;;22.46;70.01;100993.00;4921903;28;122383;-82
2022/08/20 05:07:39;;;;;;;36.20;24.80;;;;;;;22.44;69.48;100999.13;4901466;28;124769;-82
2022/08/20 05:10:05;;;;;;;38.33;24.67;;;;;;;22.44;69.87;101004.72;4927065;28;122256;-83
2022/08/20 05:12:31;;;;;;;35.78;24.95;;;;;;;22.44;69.67;101015.16;4895816;28;122328;-82
2022/08/20 05:14:57;;;;;;;33.58;23.60;;;;;;;22.43;69.54;101008.03;4916439;28;122664;-82
2022/08/20 05:17:23;;;;;;;34.97;23.60;;;;;;;22.43;69.55;101014.38;4912977;28;122316;-82
2022/08/20 05:19:51;;;;;;;35.40;23.57;;;;;;;22.41;69.35;101016.19;4900143;28;122653;-82
2022/08/20 05:22:17;;;;;;;35.37;24.03;;;;;;;22.39;70.47;101011.13;4895412;28;124486;-82
2022/08/20 05:24:43;;;;;;;31.52;22.10;;;;;;;22.47;69.85;101014.09;4914054;28;122650;-82
2022/08/20 05:27:08;;;;;;;31.80;22.00;;;;;;;22.44;69.12;101009.56;4912669;28;122873;-82
2022/08/20 05:29:34;;;;;;;33.63;22.52;;;;;;;22.52;69.61;101016.09;4902675;28;125357;-81
2022/08/20 05:32:00;;;;;;;30.73;22.10;;;;;;;22.50;69.53;100999.09;4901668;28;122542;-81
2022/08/20 05:34:26;;;;;;;30.75;22.05;;;;;;;22.58;70.25;101009.13;4899253;28;124011;-81
2022/08/20 05:37:12;;;;;;;31.67;21.63;;;;;;;22.62;69.91;101012.41;4910713;28;123426;-82
2022/08/20 05:39:37;;;;;;;34.10;21.73;;;;;;;22.63;69.44;101011.09;4895349;28;122316;-81
2022/08/20 05:42:03;;;;;;;31.42;21.83;;;;;;;22.66;69.20;101004.47;4900648;28;122331;-81
2022/08/20 05:44:30;;;;;;;30.00;21.08;;;;;;;22.69;68.84;101005.44;4909571;28;125488;-82
2022/08/20 05:46:55;;;;;;;29.75;21.50;;;;;;;22.75;69.22;101008.94;4916436;28;124082;-81
2022/08/20 05:49:21;;;;;;;27.07;20.57;;;;;;;22.79;68.61;101014.22;4896728;28;124396;-82
2022/08/20 05:51:48;;;;;;;25.37;19.60;;;;;;;22.80;68.35;101013.72;4908981;28;122949;-82
2022/08/20 05:54:14;;;;;;;27.00;20.00;;;;;;;22.80;68.52;101015.75;4908023;28;125290;-83
2022/08/20 05:56:40;;;;;;;28.08;19.85;;;;;;;22.84;68.30;101038.59;4926486;28;122988;-82
2022/08/20 05:59:08;;;;;;;26.88;20.13;;;;;;;22.81;68.28;101034.03;4900018;28;122293;-82
2022/08/20 06:01:36;;;;;;;28.48;19.60;;;;;;;22.89;68.24;101032.16;4875262;28;125633;-82
2022/08/20 06:06:47;;;;;;;24.58;18.77;;;;;;;22.92;68.05;101031.13;4915599;28;122771;-82
2022/08/20 06:09:34;;;;;;;23.45;18.45;;;;;;;22.98;68.15;101029.03;4913605;28;122864;-82
2022/08/20 06:12:02;;;;;;;30.33;18.90;;;;;;;23.08;68.46;101027.34;4922487;28;126059;-82
2022/08/20 06:14:28;;;;;;;25.17;18.80;;;;;;;23.10;68.24;101027.56;4883035;28;124560;-83
2022/08/20 06:16:54;;;;;;;22.58;18.00;;;;;;;23.16;68.21;101041.47;4930723;28;122824;-82
2022/08/20 06:19:20;;;;;;;23.90;18.40;;;;;;;23.17;67.61;101029.75;4921808;28;122697;-82
2022/08/20 06:21:45;;;;;;;22.60;18.08;;;;;;;23.18;68.50;101025.66;4915816;28;124993;-82
2022/08/20 06:24:11;;;;;;;22.07;17.10;;;;;;;23.19;67.81;101027.19;4903167;28;125624;-82
2022/08/20 06:26:37;;;;;;;23.20;16.77;;;;;;;23.24;68.07;101017.22;4914554;28;122394;-82
2022/08/20 06:29:04;;;;;;;22.50;16.88;;;;;;;23.28;67.95;101012.81;4921834;28;124363;-82
2022/08/20 06:31:30;;;;;;;20.40;16.37;;;;;;;23.39;68.22;101019.53;4919614;28;122713;-82
2022/08/20 06:33:56;;;;;;;19.57;16.30;;;;;;;23.46;67.59;101021.72;4885112;28;124315;-82
2022/08/20 06:36:22;;;;;;;23.63;17.37;;;;;;;23.49;67.96;101021.41;4919113;28;122929;-82
2022/08/20 06:38:48;;;;;;;19.23;15.40;;;;;;;23.51;67.55;101018.06;4925952;28;122537;-82
2022/08/20 06:41:13;;;;;;;18.95;15.65;;;;;;;23.52;67.29;101013.97;4914646;28;124904;-82
2022/08/20 06:43:39;;;;;;;19.17;15.20;;;;;;;23.61;67.45;101024.81;4908292;28;125739;-82
2022/08/20 06:46:05;;;;;;;16.38;14.30;;;;;;;23.68;67.07;101038.19;4925799;28;122297;-82
2022/08/20 06:48:31;;;;;;;17.67;13.95;;;;;;;23.62;66.80;101028.34;4931485;28;122195;-83
2022/08/20 06:50:57;;;;;;;16.50;13.57;;;;;;;23.60;67.07;101022.53;4920618;28;125066;-82
2022/08/20 06:53:28;;;;;;;17.00;13.38;;;;;;;23.62;66.92;101019.94;4896383;28;123416;-82
2022/08/20 06:55:55;;;;;;;15.87;12.90;;;;;;;23.71;67.21;101031.53;4912195;28;122500;-82
2022/08/20 06:58:21;;;;;;;15.47;11.93;;;;;;;23.72;66.37;101033.03;4910066;28;123177;-82
2022/08/20 07:00:47;;;;;;;15.83;11.70;;;;;;;23.74;66.43;101024.84;4914555;28;122248;-82
2022/08/20 07:03:16;;;;;;;13.80;11.65;;;;;;;23.81;66.77;101029.81;4898602;28;125089;-83
2022/08/20 07:05:43;;;;;;;11.85;10.18;;;;;;;23.82;66.67;101019.38;4913865;28;122865;-82
2022/08/20 07:08:17;;;;;;;14.93;10.90;;;;;;;23.89;66.54;101025.09;4893003;28;124409;-82
2022/08/20 07:10:44;;;;;;;12.10;9.32;;;;;;;23.97;66.41;101036.44;4907665;28;125910;-83
2022/08/20 07:13:10;;;;;;;11.73;9.82;;;;;;;24.01;65.74;101036.13;4896922;28;122413;-82
2022/08/20 07:15:37;;;;;;;12.15;9.15;;;;;;;24.03;65.89;101033.53;4906030;28;124871;-82
2022/08/20 07:18:04;;;;;;;10.15;8.27;;;;;;;24.07;65.18;101042.38;4907690;28;122727;-83
2022/08/20 07:20:32;;;;;;;9.65;7.97;;;;;;;24.10;65.74;101044.09;4888285;28;124701;-82
2022/08/20 07:22:59;;;;;;;8.90;7.78;;;;;;;24.07;66.32;101040.31;4918262;28;123064;-82
2022/08/20 07:25:26;;;;;;;10.98;8.10;;;;;;;24.15;65.03;101046.06;4899036;28;122949;-83
2022/08/20 07:27:59;;;;;;;9.40;7.43;;;;;;;24.16;64.91;101037.13;4912193;28;124835;-82
2022/08/20 07:33:13;;;;;;;8.27;6.75;;;;;;;24.19;64.96;101035.28;4911416;28;122359;-82
2022/08/20 07:35:40;;;;;;;10.40;6.90;;;;;;;24.24;64.81;101037.22;4918192;28;122445;-82
2022/08/20 07:38:06;;;;;;;8.53;6.53;;;;;;;24.24;64.47;101037.22;4907660;28;125354;-83
2022/08/20 07:40:34;;;;;;;8.02;6.30;;;;;;;24.33;64.30;101039.63;4898176;28;124960;-82
2022/08/20 07:43:01;;;;;;;8.23;6.05;;;;;;;24.37;63.72;101034.47;4925918;28;125351;-81
2022/08/20 07:45:33;;;;;;;10.13;6.72;;;;;;;24.39;64.57;101037.50;4914920;28;122942;-82
2022/08/20 07:48:07;;;;;;;6.47;5.78;;;;;;;24.51;64.34;101037.25;4908924;28;122158;-82
2022/08/20 07:50:32;;;;;;;8.88;6.28;;;;;;;24.52;63.59;101042.31;4918663;28;122917;-82
2022/08/20 07:52:59;;;;;;;7.63;6.25;;;;;;;24.49;63.97;101035.75;4914723;28;122149;-81
2022/08/20 07:55:26;;;;;;;7.43;6.30;;;;;;;24.62;63.99;101049.03;4908493;28;123934;-82
2022/08/20 07:58:27;;;;;;;7.53;6.63;;;;;;;24.77;64.01;101043.59;4886572;28;124187;-82
2022/08/20 08:00:53;;;;;;;9.23;7.70;;;;;;;24.90;64.26;101045.66;4886259;28;122474;-82
2022/08/20 08:03:19;;;;;;;7.53;5.77;;;;;;;25.01;62.89;101025.03;4852681;28;126180;-82
2022/08/20 08:05:47;;;;;;;7.83;5.80;;;;;;;25.30;62.55;101040.69;4883856;28;122291;-83
2022/08/20 08:08:19;;;;;;;9.48;5.40;;;;;;;25.53;61.92;101040.91;4865723;28;125286;-80
2022/08/20 08:10:51;;;;;;;6.55;4.90;;;;;;;25.76;60.79;101029.94;4865547;28;124361;-82
2022/08/20 08:13:31;;;;;;;6.60;5.30;;;;;;;26.07;59.86;101039.38;4859194;28;122502;-83
2022/08/20 08:16:00;;;;;;;7.57;5.10;;;;;;;26.13;58.76;101045.59;4883202;28;124241;-82
2022/08/20 08:18:33;;;;;;;5.70;4.00;;;;;;;26.21;57.69;101056.88;4883642;28;126493;-82
2022/08/20 08:20:59;;;;;;;5.53;4.57;;;;;;;26.30;58.76;101059.22;4878592;28;122834;-82
2022/08/20 08:23:25;;;;;;;6.47;4.10;;;;;;;26.34;58.54;101058.88;4858427;28;124600;-81
2022/08/20 08:25:51;;;;;;;4.53;3.70;;;;;;;26.36;56.89;101062.66;4876052;28;122220;-83
2022/08/20 08:28:20;;;;;;;4.78;3.30;;;;;;;26.29;56.76;101063.34;4882455;28;124429;-82
2022/08/20 08:30:47;;;;;;;4.40;3.60;;;;;;;26.19;56.80;101056.69;4886303;28;126651;-82
2022/08/20 08:33:33;;;;;;;5.13;3.70;;;;;;;26.06;56.63;101065.97;4905119;28;122665;-82
2022/08/20 08:36:10;;;;;;;6.80;4.00;;;;;;;25.78;56.60;101063.09;4904564;28;125631;-81
2022/08/20 08:38:38;;;;;;;8.68;4.05;;;;;;;25.69;57.97;101072.75;4885668;28;124475;-83
2022/08/20 08:41:16;;;;;;;7.78;4.13;;;;;;;25.57;58.37;101077.88;4896983;28;122440;-80
2022/08/20 08:43:45;;;;;;;7.18;4.05;;;;;;;25.44;58.43;101075.09;4901568;28;122888;-82
2022/08/20 08:46:43;;;;;;;7.45;3.83;;;;;;;25.47;59.24;101067.63;4918998;28;122305;-82
2022/08/20 08:49:16;;;;;;;7.50;3.70;;;;;;;25.64;59.43;101074.38;4918467;28;124701;-82
2022/08/20 08:51:54;;;;;;;6.10;3.50;;;;;;;25.82;58.60;101067.09;4915694;28;123028;-83
2022/08/20 08:54:23;;;;;;;5.93;3.00;;;;;;;26.13;57.94;101079.31;4877201;28;122457;-82
2022/08/20 08:56:51;;;;;;;5.75;3.10;;;;;;;26.39;55.82;101072.03;4890175;28;122842;-82
2022/08/20 08:59:18;;;;;;;7.43;2.83;;;;;;;26.70;54.73;101084.22;4882936;28;125643;-81
2022/08/20 09:01:47;;;;;;;5.30;2.70;;;;;;;26.92;53.25;101072.31;4894340;28;123116;-83
2022/08/20 09:04:15;;;;;;;6.55;2.88;;;;;;;27.07;53.45;101074.50;4900683;28;122584;-82
2022/08/20 09:06:42;;;;;;;6.90;2.70;;;;;;;27.15;52.11;101083.72;4907002;28;125403;-82
2022/08/20 09:09:19;;;;;;;6.05;2.80;;;;;;;26.87;51.98;101079.63;4903418;28;125155;-83
2022/08/20 09:11:49;;;;;;;6.67;2.60;;;;;;;26.72;52.30;101085.16;4890758;28;122545;-83
2022/08/20 09:14:14;;;;;;;7.10;2.78;;;;;;;26.65;53.00;101085.88;4887654;28;122990;-83
2022/08/20 09:16:40;;;;;;;7.88;2.83;;;;;;;26.70;52.96;101087.03;4900889;28;124561;-82
2022/08/20 09:19:06;;;;;;;7.95;2.70;;;;;;;26.64;51.30;101090.00;4919863;28;125880;-82
2022/08/20 09:21:31;;;;;;;7.80;2.63;;;;;;;26.69;52.15;101083.47;4895791;28;122225;-84
2022/08/20 09:23:57;;;;;;;8.43;2.67;;;;;;;26.71;51.98;101083.66;4895289;28;124482;-83
2022/08/20 09:26:23;;;;;;;11.07;2.67;;;;;;;26.78;51.73;101088.59;4885939;28;126194;-83
2022/08/20 09:28:48;;;;;;;5.60;2.40;;;;;;;26.98;51.30;101089.81;4907372;28;122813;-83
2022/08/20 09:31:14;;;;;;;6.13;2.30;;;;;;;27.00;51.11;101087.22;4896021;28;125636;-82
2022/08/20 09:33:40;;;;;;;6.47;2.20;;;;;;;27.07;50.71;101094.19;4920343;28;122653;-83
2022/08/20 09:36:05;;;;;;;7.95;2.70;;;;;;;26.95;49.20;101082.47;4906446;28;124890;-83
2022/08/20 09:38:31;;;;;;;6.32;2.10;;;;;;;26.70;50.38;101089.84;4904219;28;124358;-83
2022/08/20 09:40:57;;;;;;;8.52;2.28;;;;;;;26.61;49.58;101091.88;4901762;28;122209;-83
2022/08/20 09:43:23;;;;;;;17.52;3.20;;;;;;;26.51;49.94;101074.00;4897897;28;124451;-82
2022/08/20 09:45:48;;;;;;;6.32;2.15;;;;;;;26.54;49.78;101086.22;4894801;28;125898;-83
2022/08/20 09:48:14;;;;;;;5.78;2.22;;;;;;;26.55;49.09;101076.47;4920275;28;122642;-83
2022/08/20 09:50:45;;;;;;;5.80;2.10;;;;;;;26.57;48.83;101082.28;4921190;28;124492;-82
2022/08/20 09:53:11;;;;;;;6.97;2.10;;;;;;;26.57;48.47;101082.28;4910982;28;123564;-83
2022/08/20 09:55:37;;;;;;;7.78;2.17;;;;;;;26.67;47.58;101091.72;4898791;28;124955;-83
2022/08/20 09:58:26;;;;;;;5.95;2.00;;;;;;;26.75;48.42;101086.91;4927050;28;123428;-82
2022/08/20 10:00:52;;;;;;;7.90;2.22;;;;;;;26.83;48.66;101087.69;4894909;28;122507;-83
2022/08/20 10:03:18;;;;;;;6.82;2.20;;;;;;;26.83;48.08;101086.94;4903417;28;123878;-83
2022/08/20 10:05:43;;;;;;;7.03;2.17;;;;;;;26.81;49.24;101092.38;4907676;28;125546;-82
2022/08/20 10:08:10;;;;;;;9.25;2.40;;;;;;;26.86;49.08;101103.47;4917318;28;123267;-83
2022/08/20 10:10:36;;;;;;;6.53;2.00;;;;;;;26.83;47.71;101110.19;4927406;28;122531;-82
2022/08/20 10:13:02;;;;;;;7.45;2.30;;;;;;;26.79;47.97;101107.00;4903873;28;125553;-82
2022/08/20 10:15:29;;;;;;;6.90;2.20;;;;;;;26.76;47.21;101096.09;4905865;28;124173;-83
2022/08/20 10:17:56;;;;;;;7.87;2.00;;;;;;;26.60;47.10;101098.06;4921745;28;123149;-83
2022/08/20 10:20:22;;;;;;;6.60;1.90;;;;;;;26.42;47.30;101091.38;4917757;28;122824;-82
2022/08/20 10:22:48;;;;;;;5.93;1.90;;;;;;;26.40;48.22;101088.34;4916536;28;123745;-82
2022/08/20 10:25:15;;;;;;;7.03;2.10;;;;;;;26.48;46.60;101094.78;4903371;28;125167;-83
2022/08/20 10:27:41;;;;;;;5.90;1.90;;;;;;;26.60;47.41;101103.69;4933462;28;124946;-83
2022/08/20 10:30:07;;;;;;;5.53;1.60;;;;;;;26.61;47.30;101097.50;4916068;28;125428;-83
2022/08/20 10:32:33;;;;;;;4.97;1.67;;;;;;;26.70;46.85;101101.09;4920957;28;122598;-82
2022/08/20 10:34:59;;;;;;;6.28;1.70;;;;;;;26.72;45.16;101110.50;4917766;28;122247;-82
2022/08/20 10:37:25;;;;;;;4.43;1.60;;;;;;;26.65;45.40;101097.16;4908977;28;125665;-82
2022/08/20 10:39:52;;;;;;;5.70;1.70;;;;;;;26.76;44.95;101102.47;4899745;28;122594;-82
2022/08/20 10:42:18;;;;;;;6.47;1.70;;;;;;;26.73;45.13;101092.31;4915060;28;124893;-84
2022/08/20 10:44:43;;;;;;;6.60;1.58;;;;;;;26.69;46.07;101096.78;4912709;28;123679;-84
2022/08/20 10:47:24;;;;;;;8.02;2.03;;;;;;;26.68;46.33;101089.66;4920585;28;122488;-83
2022/08/20 10:49:51;;;;;;;7.13;1.90;;;;;;;26.73;46.63;101097.94;4922865;28;124986;-83
2022/08/20 10:52:17;;;;;;;7.80;2.05;;;;;;;26.81;45.58;101109.25;4914905;28;125757;-83
2022/08/20 10:54:48;;;;;;;6.88;2.05;;;;;;;26.81;45.14;101098.75;4919162;28;122442;-81
2022/08/20 10:57:20;;;;;;;6.95;1.98;;;;;;;26.82;47.01;101094.63;4915963;28;122918;-83
2022/08/20 11:00:17;;;;;;;5.90;1.90;;;;;;;26.81;46.81;101093.13;4915984;28;122808;-83
2022/08/20 11:02:43;;;;;;;6.37;2.00;;;;;;;26.89;46.65;101096.72;4905000;28;124633;-84
2022/08/20 11:05:09;;;;;;;5.87;1.80;;;;;;;26.91;46.06;101102.53;4900176;28;125931;-84
2022/08/20 11:07:37;;;;;;;6.75;1.70;;;;;;;27.01;46.61;101099.25;4913495;28;123726;-83
2022/08/20 11:10:06;;;;;;;6.30;1.80;;;;;;;27.02;45.75;101093.06;4920771;28;122494;-84
2022/08/20 11:12:32;;;;;;;6.32;1.83;;;;;;;26.98;46.05;101103.16;4907958;28;125500;-83
2022/08/20 11:14:58;;;;;;;7.65;1.90;;;;;;;26.98;45.98;101103.16;4922061;28;123967;-81
2022/08/20 11:17:34;;;;;;;5.90;2.00;;;;;;;27.02;45.38;101106.38;4919954;28;123906;-83
2022/08/20 11:20:01;;;;;;;5.38;1.80;;;;;;;26.90;46.17;101111.53;4927726;28;122172;-83